Flugplatz Zwickau

Für EDBI sind keine METAR/TAF Berichte vorhanden.
Es werden die Flugwettermeldungen vom Flugplatz Altenburg-Nobitz in 31 km Entfernung angezeigt.

Bericht für EDAC

vom 07.03. um 01:50 UTC

Wind 3 kt aus 180°

Sichtweite 10 km oder mehr

aufgebrochene Bewölkung in 3800 ft

Temperatur -2.0°C

Taupunkt -5.0°C

Luftfeuchtigkeit 80%

Luftdruck 1027 hPa

EDAC 070150Z AUTO 18003KT 130V200 9999 // BKN038/// M02/M05 Q1027
Keine Prognose (TAF) verfügbar.
Impressum